createdAt,value
2017-09-28T00:02:02.385Z,13.30
2017-09-28T00:04:30.656Z,13.20
2017-09-28T00:06:59.127Z,13.20
2017-09-28T00:09:27.657Z,13.20
2017-09-28T00:11:55.118Z,13.10
2017-09-28T00:14:22.774Z,13.20
2017-09-28T00:16:50.446Z,13.20
2017-09-28T00:19:17.933Z,13.10
2017-09-28T00:21:45.593Z,13.20
2017-09-28T00:24:13.079Z,13.10
2017-09-28T00:26:41.536Z,13.10
2017-09-28T00:29:09.187Z,13.00
2017-09-28T00:31:36.719Z,13.10
2017-09-28T00:34:04.221Z,13.10
2017-09-28T00:36:31.732Z,13.10
2017-09-28T00:38:59.226Z,13.10
2017-09-28T00:41:26.721Z,13.00
2017-09-28T00:43:54.209Z,13.00
2017-09-28T00:46:22.108Z,13.00
2017-09-28T00:48:49.770Z,13.00
2017-09-28T00:51:17.250Z,13.10
2017-09-28T00:53:45.488Z,13.10
2017-09-28T00:56:13.327Z,13.00
2017-09-28T00:58:40.794Z,13.00
2017-09-28T01:01:08.302Z,12.90
2017-09-28T01:03:36.656Z,12.90
2017-09-28T01:06:04.799Z,12.90
2017-09-28T01:08:32.281Z,12.80
2017-09-28T01:10:59.967Z,12.90
2017-09-28T01:13:28.266Z,12.80
2017-09-28T01:15:55.736Z,12.80
2017-09-28T01:18:23.574Z,12.80
2017-09-28T01:20:51.814Z,12.70
2017-09-28T01:23:19.310Z,12.70
2017-09-28T01:25:47.673Z,12.70
2017-09-28T01:28:15.140Z,12.70
2017-09-28T01:30:43.458Z,12.70
2017-09-28T01:33:10.966Z,12.70
2017-09-28T01:35:38.511Z,12.70
2017-09-28T01:38:05.973Z,12.80
2017-09-28T01:40:33.827Z,12.70
2017-09-28T01:43:01.660Z,12.80
2017-09-28T01:45:29.215Z,12.60
2017-09-28T01:47:56.705Z,12.60
2017-09-28T01:50:24.239Z,12.50
2017-09-28T01:52:52.032Z,12.60
2017-09-28T01:55:19.505Z,12.60
2017-09-28T01:57:47.913Z,12.70
2017-09-28T02:00:16.183Z,12.80
2017-09-28T02:02:44.499Z,12.80
2017-09-28T02:05:11.960Z,12.80
2017-09-28T02:07:39.466Z,12.80
2017-09-28T02:10:07.754Z,12.90
2017-09-28T02:12:36.749Z,12.90
2017-09-28T02:15:05.045Z,12.90
2017-09-28T02:17:32.559Z,12.90
2017-09-28T02:20:00.029Z,13.00
2017-09-28T02:22:28.510Z,13.00
2017-09-28T02:24:56.746Z,13.10
2017-09-28T02:27:24.269Z,13.10
2017-09-28T02:29:52.561Z,13.20
2017-09-28T02:32:20.065Z,13.20
2017-09-28T02:34:47.538Z,13.10
2017-09-28T02:37:16.006Z,13.30
2017-09-28T02:39:44.979Z,13.30
2017-09-28T02:42:12.453Z,13.30
2017-09-28T02:44:40.324Z,13.30
2017-09-28T02:47:09.339Z,13.30
2017-09-28T02:49:37.558Z,13.30
2017-09-28T02:52:05.308Z,13.30
2017-09-28T02:54:32.787Z,13.20
2017-09-28T02:57:00.287Z,13.20
2017-09-28T02:59:28.525Z,13.20
2017-09-28T03:01:55.997Z,13.20
2017-09-28T03:04:24.237Z,13.30
2017-09-28T03:06:51.842Z,13.30
2017-09-28T03:09:20.085Z,13.30
2017-09-28T03:11:47.888Z,13.30
2017-09-28T03:14:15.461Z,13.20
2017-09-28T03:16:42.960Z,13.30
2017-09-28T03:19:10.613Z,13.30
2017-09-28T03:21:38.095Z,13.30
2017-09-28T03:24:05.578Z,13.30
2017-09-28T03:26:33.854Z,13.30
2017-09-28T03:29:02.717Z,13.30
2017-09-28T03:31:30.198Z,13.30
2017-09-28T03:33:58.749Z,13.30
2017-09-28T03:36:26.220Z,13.30
2017-09-28T03:38:54.274Z,13.30
2017-09-28T03:41:21.982Z,13.30
2017-09-28T03:43:50.221Z,13.30
2017-09-28T03:46:17.839Z,13.30
2017-09-28T03:48:45.364Z,13.30
2017-09-28T03:51:14.070Z,13.20
2017-09-28T03:53:41.590Z,13.20
2017-09-28T03:56:09.454Z,13.20
2017-09-28T03:58:36.977Z,13.20
2017-09-28T04:01:04.483Z,13.30
2017-09-28T04:03:32.150Z,13.20
2017-09-28T04:06:00.570Z,13.30
2017-09-28T04:08:28.969Z,13.30
2017-09-28T04:10:56.712Z,13.30
2017-09-28T04:13:24.236Z,13.30
2017-09-28T04:15:51.805Z,13.30
2017-09-28T04:18:20.515Z,13.30
2017-09-28T04:20:47.983Z,13.30
2017-09-28T04:23:16.268Z,13.40
2017-09-28T04:25:43.798Z,13.40
2017-09-28T04:28:11.273Z,13.50
2017-09-28T04:30:38.746Z,13.50
2017-09-28T04:33:06.781Z,13.50
2017-09-28T04:35:34.246Z,13.50
2017-09-28T04:38:01.703Z,13.50
2017-09-28T04:40:29.345Z,13.50
2017-09-28T04:42:57.638Z,13.50
2017-09-28T04:45:25.112Z,13.50
2017-09-28T04:47:52.714Z,13.60
2017-09-28T04:50:21.009Z,13.60
2017-09-28T04:52:49.247Z,13.50
2017-09-28T04:55:16.924Z,13.50
2017-09-28T04:57:44.390Z,13.50
2017-09-28T05:00:11.882Z,13.50
2017-09-28T05:02:39.538Z,13.50
2017-09-28T05:05:07.035Z,13.50
2017-09-28T05:07:34.500Z,13.50
2017-09-28T05:10:01.998Z,13.50
2017-09-28T05:12:30.742Z,13.40
2017-09-28T05:14:58.239Z,13.40
2017-09-28T05:17:26.501Z,13.40
2017-09-28T05:19:54.060Z,13.40
2017-09-28T05:22:21.557Z,13.50
2017-09-28T05:24:49.404Z,13.50
2017-09-28T05:27:17.762Z,13.40
2017-09-28T05:29:45.229Z,13.40
2017-09-28T05:32:13.853Z,13.30
2017-09-28T05:34:41.686Z,13.30
2017-09-28T05:37:10.068Z,13.40
2017-09-28T05:39:38.678Z,13.40
2017-09-28T05:42:06.168Z,13.40
2017-09-28T05:44:33.678Z,13.40
2017-09-28T05:47:01.417Z,13.40
2017-09-28T05:49:29.683Z,13.30
2017-09-28T05:51:57.246Z,13.30
2017-09-28T05:54:24.782Z,13.30
2017-09-28T05:56:52.309Z,13.40
2017-09-28T05:59:19.768Z,13.50
2017-09-28T06:01:47.496Z,13.50
2017-09-28T06:04:14.998Z,13.50
2017-09-28T06:06:42.464Z,13.50
2017-09-28T06:09:10.259Z,13.60
2017-09-28T06:11:37.791Z,13.60
2017-09-28T06:14:05.286Z,13.60
2017-09-28T06:16:32.978Z,13.70
2017-09-28T06:19:00.447Z,13.70
2017-09-28T06:21:28.173Z,13.80
2017-09-28T06:23:56.449Z,13.90
2017-09-28T06:26:24.042Z,13.80
2017-09-28T06:28:51.766Z,14.00
2017-09-28T06:31:20.023Z,14.10
2017-09-28T06:33:47.662Z,14.10
2017-09-28T06:36:16.059Z,14.10
2017-09-28T06:38:43.640Z,14.10
2017-09-28T06:41:11.183Z,14.20
2017-09-28T06:43:38.947Z,14.10
2017-09-28T06:46:06.433Z,14.00
2017-09-28T06:48:35.004Z,14.00
2017-09-28T06:51:02.679Z,14.00
2017-09-28T06:53:30.950Z,14.00
2017-09-28T06:55:59.174Z,14.00
2017-09-28T06:58:26.708Z,13.90
2017-09-28T07:00:54.212Z,14.00
2017-09-28T07:03:21.676Z,14.00
2017-09-28T07:05:49.369Z,14.00
2017-09-28T07:08:17.621Z,14.00
2017-09-28T07:10:45.232Z,14.00
2017-09-28T07:13:12.955Z,14.10
2017-09-28T07:15:41.231Z,14.30
2017-09-28T07:18:09.508Z,14.40
2017-09-28T07:20:38.569Z,14.50
2017-09-28T07:23:06.053Z,14.40
2017-09-28T07:25:33.672Z,14.60
2017-09-28T07:28:01.697Z,14.60
2017-09-28T07:30:30.073Z,14.70
2017-09-28T07:32:58.329Z,14.80
2017-09-28T07:35:25.907Z,14.80
2017-09-28T07:37:54.226Z,15.00
2017-09-28T07:40:21.731Z,15.00
2017-09-28T07:42:49.435Z,15.00
2017-09-28T07:45:16.964Z,15.10
2017-09-28T07:47:45.229Z,15.40
2017-09-28T07:50:12.865Z,15.40
2017-09-28T07:52:40.402Z,15.50
2017-09-28T07:55:07.977Z,15.50
2017-09-28T07:57:35.566Z,15.70
2017-09-28T08:00:03.044Z,15.70
2017-09-28T08:02:31.270Z,15.80
2017-09-28T08:04:59.010Z,15.80
2017-09-28T08:07:26.493Z,16.00
2017-09-28T08:09:53.983Z,15.60
2017-09-28T08:12:22.471Z,15.80
2017-09-28T08:14:50.742Z,15.90
2017-09-28T08:17:19.018Z,16.00
2017-09-28T08:19:47.857Z,16.00
2017-09-28T08:22:15.483Z,16.00
2017-09-28T08:24:42.987Z,16.10
2017-09-28T08:27:10.645Z,16.00
2017-09-28T08:29:38.114Z,16.10
2017-09-28T08:32:05.955Z,16.10
2017-09-28T08:34:33.633Z,15.90
2017-09-28T08:37:01.103Z,15.80
2017-09-28T08:39:28.640Z,15.80
2017-09-28T08:41:56.166Z,15.90
2017-09-28T08:44:24.414Z,15.90
2017-09-28T08:46:51.901Z,15.90
2017-09-28T08:49:19.634Z,16.00
2017-09-28T08:51:47.938Z,16.30
2017-09-28T08:54:16.170Z,16.30
2017-09-28T08:56:43.861Z,16.20
2017-09-28T08:59:12.141Z,16.70
2017-09-28T09:01:40.452Z,17.00
2017-09-28T09:04:08.404Z,17.00
2017-09-28T09:06:35.932Z,17.20
2017-09-28T09:09:03.427Z,17.20
2017-09-28T09:11:31.245Z,17.40
2017-09-28T09:13:58.830Z,17.40
2017-09-28T09:16:27.082Z,17.70
2017-09-28T09:18:54.998Z,17.70
2017-09-28T09:21:22.478Z,17.60
2017-09-28T09:23:50.033Z,17.30
2017-09-28T09:26:17.585Z,17.50
2017-09-28T09:28:45.058Z,17.70
2017-09-28T09:31:12.605Z,18.10
2017-09-28T09:33:40.129Z,18.50
2017-09-28T09:36:08.386Z,18.50
2017-09-28T09:38:36.642Z,18.00
2017-09-28T09:41:04.574Z,18.00
2017-09-28T09:43:32.071Z,17.70
2017-09-28T09:45:59.580Z,17.80
2017-09-28T09:48:27.216Z,18.10
2017-09-28T09:50:55.495Z,18.50
2017-09-28T09:53:23.726Z,18.70
2017-09-28T09:55:51.633Z,18.70
2017-09-28T09:58:20.044Z,18.70
2017-09-28T10:00:47.536Z,18.70
2017-09-28T10:03:15.325Z,18.70
2017-09-28T10:05:43.799Z,18.50
2017-09-28T10:08:16.203Z,18.40
2017-09-28T10:10:56.273Z,18.30
2017-09-28T10:13:26.676Z,18.30
2017-09-28T10:15:59.881Z,18.50
2017-09-28T10:18:27.376Z,18.50
2017-09-28T10:20:55.072Z,18.50
2017-09-28T10:23:22.576Z,18.50
2017-09-28T10:25:50.093Z,18.40
2017-09-28T10:28:18.401Z,18.60
2017-09-28T10:30:45.933Z,18.50
2017-09-28T10:33:14.407Z,18.60
2017-09-28T10:35:42.832Z,18.90
2017-09-28T10:38:10.605Z,18.90
2017-09-28T10:40:38.157Z,19.10
2017-09-28T10:43:06.478Z,18.90
2017-09-28T10:45:46.338Z,18.90
2017-09-28T10:48:14.614Z,19.20
2017-09-28T10:50:43.787Z,19.00
2017-09-28T10:53:11.286Z,18.90
2017-09-28T10:55:39.425Z,19.20
2017-09-28T10:58:06.898Z,19.10
2017-09-28T11:00:35.176Z,19.30
2017-09-28T11:03:03.430Z,19.30
2017-09-28T11:05:30.906Z,19.30
2017-09-28T11:07:59.221Z,19.60
2017-09-28T11:10:26.697Z,19.50
2017-09-28T11:12:54.214Z,19.40
2017-09-28T11:15:21.754Z,19.30
2017-09-28T11:17:50.066Z,19.60
2017-09-28T11:20:17.535Z,19.60
2017-09-28T11:22:45.247Z,19.60
2017-09-28T11:25:12.710Z,19.60
2017-09-28T11:27:41.196Z,19.30
2017-09-28T11:30:09.668Z,19.40
2017-09-28T11:32:37.951Z,19.70
2017-09-28T11:35:06.250Z,19.80
2017-09-28T11:37:33.916Z,19.70
2017-09-28T11:40:01.417Z,19.90
2017-09-28T11:42:29.428Z,20.00
2017-09-28T11:44:57.674Z,20.10
2017-09-28T11:47:25.163Z,20.10
2017-09-28T11:49:53.687Z,20.10
2017-09-28T11:52:21.181Z,20.10
2017-09-28T11:54:49.452Z,20.80
2017-09-28T11:57:17.118Z,20.80
2017-09-28T11:59:44.681Z,21.20
2017-09-28T12:02:12.267Z,21.00
2017-09-28T12:04:39.893Z,21.10
2017-09-28T12:07:07.378Z,21.50
2017-09-28T12:09:35.830Z,21.10
2017-09-28T12:12:03.533Z,21.10
2017-09-28T12:14:30.995Z,20.70
2017-09-28T12:16:58.473Z,20.80
2017-09-28T12:19:26.170Z,20.80
2017-09-28T12:21:54.478Z,21.00
2017-09-28T12:24:22.478Z,21.00
2017-09-28T12:26:50.096Z,20.90
2017-09-28T12:29:18.336Z,21.20
2017-09-28T12:31:45.895Z,21.20
2017-09-28T12:34:14.446Z,21.40
2017-09-28T12:36:41.978Z,21.70
2017-09-28T12:39:10.210Z,22.00
2017-09-28T12:41:37.915Z,21.90
2017-09-28T12:44:05.374Z,22.00
2017-09-28T12:46:32.875Z,22.10
2017-09-28T12:49:00.679Z,21.80
2017-09-28T12:51:28.934Z,21.60
2017-09-28T12:53:56.948Z,21.60
2017-09-28T12:56:34.558Z,21.40
2017-09-28T12:59:02.059Z,21.50
2017-09-28T13:01:29.540Z,21.30
2017-09-28T13:03:58.022Z,21.70
2017-09-28T13:06:26.846Z,21.70
2017-09-28T13:08:54.378Z,21.70
2017-09-28T13:11:23.227Z,21.50
2017-09-28T13:13:50.854Z,21.50
2017-09-28T13:16:18.328Z,21.80
2017-09-28T13:18:46.039Z,22.00
2017-09-28T13:21:14.312Z,21.80
2017-09-28T13:23:42.562Z,22.30
2017-09-28T13:26:20.968Z,22.20
2017-09-28T13:28:48.467Z,22.40
2017-09-28T13:31:16.751Z,22.70
2017-09-28T13:33:45.022Z,22.80
2017-09-28T13:36:13.240Z,22.60
2017-09-28T13:38:40.745Z,22.50
2017-09-28T13:41:09.273Z,22.30
2017-09-28T13:43:37.417Z,22.30
2017-09-28T13:46:04.895Z,22.40
2017-09-28T13:48:32.394Z,22.30
2017-09-28T13:50:59.867Z,22.30
2017-09-28T13:53:28.108Z,22.40
2017-09-28T13:55:55.859Z,22.30
2017-09-28T13:58:23.333Z,22.40
2017-09-28T14:00:50.814Z,22.40
2017-09-28T14:03:19.346Z,22.50
2017-09-28T14:05:46.905Z,22.50
2017-09-28T14:08:14.570Z,22.50
2017-09-28T14:10:42.113Z,22.00
2017-09-28T14:13:09.581Z,22.10
2017-09-28T14:15:37.121Z,22.20
2017-09-28T14:18:04.860Z,22.10
2017-09-28T14:20:32.340Z,21.90
2017-09-28T14:22:59.827Z,21.90
2017-09-28T14:25:27.997Z,21.80
2017-09-28T14:27:55.482Z,21.60
2017-09-28T14:30:22.978Z,21.50
2017-09-28T14:32:50.770Z,21.50
2017-09-28T14:35:18.362Z,21.40
2017-09-28T14:37:45.859Z,21.40
2017-09-28T14:40:14.339Z,21.50
2017-09-28T14:42:42.601Z,21.50
2017-09-28T14:45:10.080Z,21.40
2017-09-28T14:47:37.630Z,21.50
2017-09-28T14:50:05.902Z,21.30
2017-09-28T14:52:34.192Z,21.30
2017-09-28T14:55:02.792Z,21.30
2017-09-28T14:57:30.298Z,21.30
2017-09-28T14:59:57.777Z,21.20
2017-09-28T15:02:26.046Z,21.20
2017-09-28T15:04:54.296Z,21.20
2017-09-28T15:07:21.801Z,21.10
2017-09-28T15:09:50.147Z,21.20
2017-09-28T15:12:18.408Z,21.10
2017-09-28T15:14:45.911Z,21.10
2017-09-28T15:17:13.426Z,21.10
2017-09-28T15:19:40.929Z,21.10
2017-09-28T15:22:08.430Z,21.10
2017-09-28T15:24:36.166Z,21.00
2017-09-28T15:27:03.663Z,21.00
2017-09-28T15:29:31.177Z,21.00
2017-09-28T15:31:58.673Z,21.00
2017-09-28T15:34:26.180Z,21.00
2017-09-28T15:36:53.676Z,21.00
2017-09-28T15:39:21.418Z,21.00
2017-09-28T15:41:48.905Z,21.10
2017-09-28T15:44:16.384Z,21.20
2017-09-28T15:46:44.069Z,21.40
2017-09-28T15:49:13.170Z,21.50
2017-09-28T15:51:41.432Z,21.60
2017-09-28T15:54:09.927Z,21.60
2017-09-28T15:56:38.231Z,21.60
2017-09-28T15:59:05.739Z,21.60
2017-09-28T16:01:33.246Z,21.50
2017-09-28T16:04:00.758Z,21.50
2017-09-28T16:06:29.105Z,21.20
2017-09-28T16:08:58.153Z,21.20
2017-09-28T16:11:25.717Z,21.10
2017-09-28T16:13:53.222Z,21.10
2017-09-28T16:16:20.794Z,21.10
2017-09-28T16:18:48.282Z,21.10
2017-09-28T16:21:15.893Z,21.10
2017-09-28T16:23:43.376Z,21.10
2017-09-28T16:26:10.979Z,21.10
2017-09-28T16:28:38.460Z,21.00
2017-09-28T16:31:05.961Z,20.90
2017-09-28T16:33:33.590Z,20.80
2017-09-28T16:36:01.085Z,20.70
2017-09-28T16:38:29.353Z,20.40
2017-09-28T16:40:57.483Z,20.40
2017-09-28T16:43:24.975Z,20.30
2017-09-28T16:45:52.496Z,20.30
2017-09-28T16:48:20.068Z,20.20
2017-09-28T16:50:47.562Z,20.20
2017-09-28T16:53:15.875Z,20.10
2017-09-28T16:55:43.461Z,20.00
2017-09-28T16:58:11.047Z,20.10
2017-09-28T17:00:39.592Z,20.00
2017-09-28T17:03:07.426Z,20.00
2017-09-28T17:05:34.971Z,20.00
2017-09-28T17:08:03.227Z,19.90
2017-09-28T17:10:30.758Z,19.90
2017-09-28T17:12:58.242Z,19.80
2017-09-28T17:15:25.818Z,19.80
2017-09-28T17:17:53.364Z,19.80
2017-09-28T17:20:20.823Z,19.80
2017-09-28T17:22:49.108Z,19.70
2017-09-28T17:25:17.518Z,19.70
2017-09-28T17:27:45.062Z,19.70
2017-09-28T17:30:13.353Z,19.70
2017-09-28T17:32:41.295Z,19.60
2017-09-28T17:35:10.151Z,19.60
2017-09-28T17:37:38.107Z,19.60
2017-09-28T17:40:07.401Z,19.50
2017-09-28T17:42:34.905Z,19.50
2017-09-28T17:45:03.821Z,19.40
2017-09-28T17:47:31.823Z,19.40
2017-09-28T17:49:59.437Z,19.40
2017-09-28T17:52:27.038Z,19.40
2017-09-28T17:54:54.766Z,19.40
2017-09-28T17:57:22.276Z,19.30
2017-09-28T17:59:49.765Z,19.30
2017-09-28T18:02:18.246Z,19.30
2017-09-28T18:04:47.498Z,19.30
2017-09-28T18:07:15.033Z,19.20
2017-09-28T18:09:43.718Z,19.20
2017-09-28T18:12:11.328Z,19.20
2017-09-28T18:14:39.105Z,19.20
2017-09-28T18:17:06.611Z,19.20
2017-09-28T18:19:34.170Z,19.10
2017-09-28T18:22:01.682Z,19.10
2017-09-28T18:24:32.872Z,19.00
2017-09-28T18:27:00.358Z,19.00
2017-09-28T18:29:27.894Z,19.00
2017-09-28T18:31:55.392Z,19.00
2017-09-28T18:34:22.870Z,19.00
2017-09-28T18:36:51.407Z,19.00
2017-09-28T18:39:18.880Z,19.00
2017-09-28T18:41:46.399Z,19.00
2017-09-28T18:44:13.912Z,19.00
2017-09-28T18:46:42.168Z,18.90
2017-09-28T18:49:10.006Z,18.90
2017-09-28T18:51:37.507Z,18.90
2017-09-28T18:54:04.993Z,18.80
2017-09-28T18:56:33.330Z,18.80
2017-09-28T18:59:00.983Z,18.70
2017-09-28T19:01:38.912Z,18.70
2017-09-28T19:04:07.219Z,18.70
2017-09-28T19:06:34.723Z,18.70
2017-09-28T19:09:02.220Z,18.70
2017-09-28T19:11:30.527Z,18.60
2017-09-28T19:13:58.364Z,18.60
2017-09-28T19:16:26.616Z,18.60
2017-09-28T19:18:54.089Z,18.60
2017-09-28T19:21:22.376Z,18.50
2017-09-28T19:23:50.681Z,18.50
2017-09-28T19:26:18.442Z,18.50
2017-09-28T19:28:46.034Z,18.50
2017-09-28T19:31:13.540Z,18.50
2017-09-28T19:33:41.082Z,18.50
2017-09-28T19:36:09.367Z,18.50
2017-09-28T19:38:37.905Z,18.50
2017-09-28T19:41:05.463Z,18.50
2017-09-28T19:43:33.966Z,18.50
2017-09-28T19:46:02.359Z,18.50
2017-09-28T19:48:30.603Z,18.50
2017-09-28T19:51:00.240Z,18.50
2017-09-28T19:53:28.518Z,18.50
2017-09-28T19:55:57.010Z,18.40
2017-09-28T19:58:25.343Z,18.40
2017-09-28T20:00:52.918Z,18.30
2017-09-28T20:03:21.229Z,18.30
2017-09-28T20:05:49.557Z,18.20
2017-09-28T20:08:17.084Z,18.20
2017-09-28T20:10:44.668Z,18.20
2017-09-28T20:13:12.179Z,18.10
2017-09-28T20:15:40.558Z,18.10
2017-09-28T20:18:08.801Z,18.10
2017-09-28T20:20:36.326Z,18.10
2017-09-28T20:23:03.909Z,18.00
2017-09-28T20:25:31.543Z,18.00
2017-09-28T20:27:59.148Z,18.00
2017-09-28T20:30:26.639Z,18.00
2017-09-28T20:32:54.170Z,18.00
2017-09-28T20:35:21.737Z,18.00
2017-09-28T20:37:50.006Z,17.90
2017-09-28T20:40:18.289Z,17.80
2017-09-28T20:42:46.530Z,17.80
2017-09-28T20:45:14.027Z,17.80
2017-09-28T20:47:42.496Z,17.70
2017-09-28T20:50:10.766Z,17.70
2017-09-28T20:52:39.022Z,17.60
2017-09-28T20:55:06.547Z,17.60
2017-09-28T20:57:34.101Z,17.60
2017-09-28T21:00:01.722Z,17.60
2017-09-28T21:02:29.198Z,17.70
2017-09-28T21:04:57.495Z,17.60
2017-09-28T21:07:25.014Z,17.60
2017-09-28T21:09:52.488Z,17.60
2017-09-28T21:12:21.043Z,17.60
2017-09-28T21:14:48.596Z,17.60
2017-09-28T21:17:16.425Z,17.60
2017-09-28T21:19:44.815Z,17.60
2017-09-28T21:22:12.328Z,17.50
2017-09-28T21:24:40.576Z,17.50
2017-09-28T21:27:09.530Z,17.50
2017-09-28T21:29:37.056Z,17.50
2017-09-28T21:32:05.531Z,17.50
2017-09-28T21:34:33.801Z,17.50
2017-09-28T21:37:02.182Z,17.50
2017-09-28T21:39:31.167Z,17.50
2017-09-28T21:41:59.402Z,17.50
2017-09-28T21:44:26.918Z,17.50
2017-09-28T21:46:55.325Z,17.50
2017-09-28T21:49:22.801Z,17.50
2017-09-28T21:51:50.699Z,17.50
2017-09-28T21:54:28.144Z,17.50
2017-09-28T21:56:55.760Z,17.50
2017-09-28T21:59:23.218Z,17.50
2017-09-28T22:01:51.459Z,17.50
2017-09-28T22:04:19.020Z,17.40
2017-09-28T22:06:46.557Z,17.40
2017-09-28T22:09:14.283Z,17.40
2017-09-28T22:11:42.523Z,17.50
2017-09-28T22:14:10.013Z,17.50
2017-09-28T22:16:38.321Z,17.60
2017-09-28T22:19:05.835Z,17.60
2017-09-28T22:21:33.503Z,17.60
2017-09-28T22:24:02.042Z,17.60
2017-09-28T22:26:29.500Z,17.60
2017-09-28T22:28:56.965Z,17.60
2017-09-28T22:31:24.459Z,17.60
2017-09-28T22:33:52.864Z,17.50
2017-09-28T22:36:20.332Z,17.50
2017-09-28T22:38:48.784Z,17.50
2017-09-28T22:41:17.246Z,17.60
2017-09-28T22:43:45.537Z,17.50
2017-09-28T22:46:14.015Z,17.50
2017-09-28T22:48:42.281Z,17.50
2017-09-28T22:51:11.733Z,17.50
2017-09-28T22:53:39.367Z,17.50
2017-09-28T22:56:07.032Z,17.50
2017-09-28T22:58:35.302Z,17.50
2017-09-28T23:01:02.794Z,17.50
2017-09-28T23:03:30.302Z,17.50
2017-09-28T23:05:58.624Z,17.50
2017-09-28T23:08:26.089Z,17.40
2017-09-28T23:10:53.890Z,17.40
2017-09-28T23:13:22.029Z,17.50
2017-09-28T23:15:49.510Z,17.50
2017-09-28T23:18:17.037Z,17.50
2017-09-28T23:20:44.540Z,17.50
2017-09-28T23:23:12.231Z,17.50
2017-09-28T23:25:40.649Z,17.50
2017-09-28T23:28:08.198Z,17.50
2017-09-28T23:30:35.675Z,17.50
2017-09-28T23:33:03.186Z,17.40
2017-09-28T23:35:31.641Z,17.30
2017-09-28T23:37:59.933Z,17.30
2017-09-28T23:40:28.194Z,17.30
2017-09-28T23:42:56.517Z,17.30
2017-09-28T23:45:24.777Z,17.30
2017-09-28T23:47:52.613Z,17.20
2017-09-28T23:50:20.132Z,17.30
2017-09-28T23:52:47.644Z,17.20
2017-09-28T23:55:15.951Z,17.10
2017-09-28T23:57:43.681Z,17.10
